FD95 weather

CLOSED Goose Nest Seaplane Base
Santa Rosa Beach, Florida, United States

Public forecast

Using degrees Fahrenheit for public forecast. Weather courtesy of forecast.io.

METAR (pilot weather report)

Closest report is Destin Executive Airport, 14.6 nm (27.1 km) W. Retrieved 2019/02/19 09:53 UTC (43 minutes ago):

KDTS 190953Z AUTO 08013G20KT 10SM OVC028 15/06 A3018 RMK AO2 SLP219 T01500061

TAF (pilot weather forecast)

Closest forecast is Destin-Ft Walton Beach Airport, 18.1 nm (33.6 km) WNW. Retrieved 2019/02/19 10:15 UTC (21 minutes ago):

TAF TAF KVPS 191000Z 1910/2016 07012G18KT 9999 BKN025 OVC035 QNH3017INS BECMG 1913/1914 09015G25KT 9999 VCSH SCT015 BKN020 QNH3018INS BECMG 1917/1918 09012G18KT 9999 -SHRA BKN015 BKN030 QNH3017INS BECMG 1923/1924 11010KT 9999 NSW BKN009 OVC015 QNH3015INS BECMG 2002/2003 14010KT 9999 BKN005 OVC010 QNH3019INS BECMG 2007/2008 16010G15KT 6000 -RA OVC003 QNH3020INS TX18/1921Z TN13/1913Z